Weather at Montague-Yreka Rohrer Field

Public forecast

Using degrees Fahrenheit for public forecast. Weather courtesy of forecast.io.

Closest aviation weather report (METAR) to Montague-Yreka Rohrer Field

Closest report is Siskiyou County Airport, 4.6 nm (8.6 km) NE. Retrieved 2021/06/21 08:53 UTC (44 minutes ago):

KSIY 210853Z AUTO 06007KT 10SM CLR 25/10 A2992 RMK AO2 SLP106 T02500100 51003

Closest aviation forecast (TAF) to Montague-Yreka Rohrer Field

Closest forecast is Rogue Valley International Medford Airport, 41.3 nm (76.5 km) NNW. Retrieved 2021/06/21 06:45 UTC (3 hours ago):

TAF KMFR 210542Z 2106/2206 VRB03KT P6SM SKC FM212200 30012KT P6SM FEW100 SCT150 FM220400 34006KT P6SM SCT100 BKN150